sensor_id;sensor_type;location;lat;lon;timestamp;P1;durP1;ratioP1;P2;durP2;ratioP2
18274;SDS011;19470;49.322;7.218;2023-05-02T00:00:40;6.18;;;5.57;;
18274;SDS011;19470;49.322;7.218;2023-05-02T00:03:09;5.95;;;5.13;;
18274;SDS011;19470;49.322;7.218;2023-05-02T00:05:36;7.72;;;4.88;;
18274;SDS011;19470;49.322;7.218;2023-05-02T00:08:03;6.07;;;4.82;;
18274;SDS011;19470;49.322;7.218;2023-05-02T00:10:29;5.72;;;5.20;;
18274;SDS011;19470;49.322;7.218;2023-05-02T00:12:56;6.10;;;4.90;;
18274;SDS011;19470;49.322;7.218;2023-05-02T00:15:22;13.85;;;5.40;;
18274;SDS011;19470;49.322;7.218;2023-05-02T00:17:50;8.15;;;4.80;;
18274;SDS011;19470;49.322;7.218;2023-05-02T00:20:17;6.18;;;5.30;;
18274;SDS011;19470;49.322;7.218;2023-05-02T00:22:43;9.30;;;5.35;;
18274;SDS011;19470;49.322;7.218;2023-05-02T00:25:10;5.80;;;5.20;;
18274;SDS011;19470;49.322;7.218;2023-05-02T00:27:40;7.38;;;5.07;;
18274;SDS011;19470;49.322;7.218;2023-05-02T00:33:29;7.13;;;5.30;;
18274;SDS011;19470;49.322;7.218;2023-05-02T00:35:56;6.57;;;5.07;;
18274;SDS011;19470;49.322;7.218;2023-05-02T00:38:22;6.00;;;5.40;;
18274;SDS011;19470;49.322;7.218;2023-05-02T00:40:49;5.55;;;4.95;;
18274;SDS011;19470;49.322;7.218;2023-05-02T00:43:16;6.72;;;5.18;;
18274;SDS011;19470;49.322;7.218;2023-05-02T00:45:43;9.10;;;5.18;;
18274;SDS011;19470;49.322;7.218;2023-05-02T00:51:34;11.75;;;6.55;;
18274;SDS011;19470;49.322;7.218;2023-05-02T00:54:01;8.93;;;6.53;;
18274;SDS011;19470;49.322;7.218;2023-05-02T00:56:27;10.77;;;5.72;;
18274;SDS011;19470;49.322;7.218;2023-05-02T00:58:54;7.65;;;5.80;;
18274;SDS011;19470;49.322;7.218;2023-05-02T01:01:25;7.93;;;5.80;;
18274;SDS011;19470;49.322;7.218;2023-05-02T01:04:01;7.68;;;5.75;;
18274;SDS011;19470;49.322;7.218;2023-05-02T01:06:42;7.63;;;6.32;;
18274;SDS011;19470;49.322;7.218;2023-05-02T01:09:21;9.43;;;5.82;;
18274;SDS011;19470;49.322;7.218;2023-05-02T01:11:57;9.50;;;5.75;;
18274;SDS011;19470;49.322;7.218;2023-05-02T01:14:28;7.72;;;5.55;;
18274;SDS011;19470;49.322;7.218;2023-05-02T01:16:58;7.40;;;5.88;;
18274;SDS011;19470;49.322;7.218;2023-05-02T01:19:30;8.93;;;6.70;;
18274;SDS011;19470;49.322;7.218;2023-05-02T01:22:03;7.82;;;6.72;;
18274;SDS011;19470;49.322;7.218;2023-05-02T01:24:34;9.75;;;7.25;;
18274;SDS011;19470;49.322;7.218;2023-05-02T01:27:08;9.95;;;8.23;;
18274;SDS011;19470;49.322;7.218;2023-05-02T01:29:42;8.73;;;6.90;;
18274;SDS011;19470;49.322;7.218;2023-05-02T01:32:10;9.38;;;6.95;;
18274;SDS011;19470;49.322;7.218;2023-05-02T01:34:40;11.93;;;6.55;;
18274;SDS011;19470;49.322;7.218;2023-05-02T01:37:10;7.05;;;6.35;;
18274;SDS011;19470;49.322;7.218;2023-05-02T01:39:38;7.50;;;6.32;;
18274;SDS011;19470;49.322;7.218;2023-05-02T01:42:07;7.53;;;5.95;;
18274;SDS011;19470;49.322;7.218;2023-05-02T01:44:36;6.60;;;5.80;;
18274;SDS011;19470;49.322;7.218;2023-05-02T01:47:06;6.63;;;5.97;;
18274;SDS011;19470;49.322;7.218;2023-05-02T01:49:34;10.05;;;6.20;;
18274;SDS011;19470;49.322;7.218;2023-05-02T01:52:02;7.80;;;6.30;;
18274;SDS011;19470;49.322;7.218;2023-05-02T01:54:35;7.53;;;6.15;;
18274;SDS011;19470;49.322;7.218;2023-05-02T01:57:04;6.65;;;6.05;;
18274;SDS011;19470;49.322;7.218;2023-05-02T01:59:32;7.90;;;6.35;;
18274;SDS011;19470;49.322;7.218;2023-05-02T02:02:00;6.30;;;5.55;;
18274;SDS011;19470;49.322;7.218;2023-05-02T02:04:29;6.60;;;5.60;;
18274;SDS011;19470;49.322;7.218;2023-05-02T02:07:00;8.02;;;6.80;;
18274;SDS011;19470;49.322;7.218;2023-05-02T02:09:28;7.45;;;6.72;;
18274;SDS011;19470;49.322;7.218;2023-05-02T02:11:56;11.82;;;7.00;;
18274;SDS011;19470;49.322;7.218;2023-05-02T02:14:29;7.93;;;6.72;;
18274;SDS011;19470;49.322;7.218;2023-05-02T02:17:00;16.58;;;7.82;;
18274;SDS011;19470;49.322;7.218;2023-05-02T02:19:27;17.73;;;11.45;;
18274;SDS011;19470;49.322;7.218;2023-05-02T02:21:57;8.10;;;6.95;;
18274;SDS011;19470;49.322;7.218;2023-05-02T02:24:25;6.80;;;6.00;;
18274;SDS011;19470;49.322;7.218;2023-05-02T02:26:52;6.50;;;5.80;;
18274;SDS011;19470;49.322;7.218;2023-05-02T02:29:19;8.55;;;6.18;;
18274;SDS011;19470;49.322;7.218;2023-05-02T02:31:45;10.05;;;7.82;;
18274;SDS011;19470;49.322;7.218;2023-05-02T02:34:12;14.90;;;11.13;;
18274;SDS011;19470;49.322;7.218;2023-05-02T02:36:41;9.90;;;8.90;;
18274;SDS011;19470;49.322;7.218;2023-05-02T02:39:13;9.70;;;6.95;;
18274;SDS011;19470;49.322;7.218;2023-05-02T02:41:54;7.15;;;6.45;;
18274;SDS011;19470;49.322;7.218;2023-05-02T02:44:32;7.57;;;6.75;;
18274;SDS011;19470;49.322;7.218;2023-05-02T02:47:06;7.38;;;6.53;;
18274;SDS011;19470;49.322;7.218;2023-05-02T02:49:37;10.35;;;7.50;;
18274;SDS011;19470;49.322;7.218;2023-05-02T02:52:16;9.63;;;7.18;;
18274;SDS011;19470;49.322;7.218;2023-05-02T02:54:50;19.83;;;11.82;;
18274;SDS011;19470;49.322;7.218;2023-05-02T02:57:23;39.92;;;25.05;;
18274;SDS011;19470;49.322;7.218;2023-05-02T03:00:07;10.05;;;7.50;;
18274;SDS011;19470;49.322;7.218;2023-05-02T03:02:38;8.30;;;7.50;;
18274;SDS011;19470;49.322;7.218;2023-05-02T03:05:07;10.32;;;7.10;;
18274;SDS011;19470;49.322;7.218;2023-05-02T03:07:37;9.15;;;6.97;;
18274;SDS011;19470;49.322;7.218;2023-05-02T03:10:04;10.13;;;7.15;;
18274;SDS011;19470;49.322;7.218;2023-05-02T03:12:31;8.50;;;7.50;;
18274;SDS011;19470;49.322;7.218;2023-05-02T03:15:01;9.93;;;7.97;;
18274;SDS011;19470;49.322;7.218;2023-05-02T03:17:33;10.23;;;8.50;;
18274;SDS011;19470;49.322;7.218;2023-05-02T03:20:00;9.93;;;7.53;;
18274;SDS011;19470;49.322;7.218;2023-05-02T03:22:27;11.80;;;9.52;;
18274;SDS011;19470;49.322;7.218;2023-05-02T03:24:55;16.58;;;9.35;;
18274;SDS011;19470;49.322;7.218;2023-05-02T03:27:21;9.70;;;8.52;;
18274;SDS011;19470;49.322;7.218;2023-05-02T03:29:48;9.05;;;7.47;;
18274;SDS011;19470;49.322;7.218;2023-05-02T03:32:14;13.05;;;9.15;;
18274;SDS011;19470;49.322;7.218;2023-05-02T03:34:41;10.73;;;8.55;;
18274;SDS011;19470;49.322;7.218;2023-05-02T03:37:07;13.18;;;9.88;;
18274;SDS011;19470;49.322;7.218;2023-05-02T03:39:34;12.80;;;10.88;;
18274;SDS011;19470;49.322;7.218;2023-05-02T03:44:50;15.57;;;9.73;;
18274;SDS011;19470;49.322;7.218;2023-05-02T03:47:17;10.40;;;9.02;;
18274;SDS011;19470;49.322;7.218;2023-05-02T03:49:44;16.30;;;12.48;;
18274;SDS011;19470;49.322;7.218;2023-05-02T03:52:11;17.40;;;11.77;;
18274;SDS011;19470;49.322;7.218;2023-05-02T03:54:37;18.52;;;10.75;;
18274;SDS011;19470;49.322;7.218;2023-05-02T03:57:04;17.50;;;10.65;;
18274;SDS011;19470;49.322;7.218;2023-05-02T03:59:32;14.95;;;10.07;;
18274;SDS011;19470;49.322;7.218;2023-05-02T04:01:59;12.98;;;10.60;;
18274;SDS011;19470;49.322;7.218;2023-05-02T04:04:25;19.23;;;10.50;;
18274;SDS011;19470;49.322;7.218;2023-05-02T04:06:52;14.10;;;10.10;;
18274;SDS011;19470;49.322;7.218;2023-05-02T04:09:18;14.65;;;11.77;;
18274;SDS011;19470;49.322;7.218;2023-05-02T04:15:00;15.57;;;12.00;;
18274;SDS011;19470;49.322;7.218;2023-05-02T04:17:26;16.10;;;12.73;;
18274;SDS011;19470;49.322;7.218;2023-05-02T04:19:53;17.70;;;13.13;;
18274;SDS011;19470;49.322;7.218;2023-05-02T04:22:19;18.70;;;12.82;;
18274;SDS011;19470;49.322;7.218;2023-05-02T04:24:46;16.35;;;12.82;;
18274;SDS011;19470;49.322;7.218;2023-05-02T04:27:12;23.25;;;12.00;;
18274;SDS011;19470;49.322;7.218;2023-05-02T04:29:39;15.70;;;11.85;;
18274;SDS011;19470;49.322;7.218;2023-05-02T04:32:07;14.70;;;11.52;;
18274;SDS011;19470;49.322;7.218;2023-05-02T04:34:33;14.75;;;11.57;;
18274;SDS011;19470;49.322;7.218;2023-05-02T04:37:00;19.48;;;12.93;;
18274;SDS011;19470;49.322;7.218;2023-05-02T04:39:26;16.67;;;13.20;;
18274;SDS011;19470;49.322;7.218;2023-05-02T04:41:53;22.23;;;13.73;;
18274;SDS011;19470;49.322;7.218;2023-05-02T04:44:19;19.70;;;14.00;;
18274;SDS011;19470;49.322;7.218;2023-05-02T04:46:46;19.77;;;14.20;;
18274;SDS011;19470;49.322;7.218;2023-05-02T04:49:14;17.90;;;13.43;;
18274;SDS011;19470;49.322;7.218;2023-05-02T04:51:40;18.25;;;13.32;;
18274;SDS011;19470;49.322;7.218;2023-05-02T04:54:07;16.77;;;12.52;;
18274;SDS011;19470;49.322;7.218;2023-05-02T04:56:33;19.40;;;12.65;;
18274;SDS011;19470;49.322;7.218;2023-05-02T04:59:00;18.73;;;13.07;;
18274;SDS011;19470;49.322;7.218;2023-05-02T05:01:26;20.58;;;14.32;;
18274;SDS011;19470;49.322;7.218;2023-05-02T05:03:53;17.85;;;14.25;;
18274;SDS011;19470;49.322;7.218;2023-05-02T05:06:24;21.80;;;16.20;;
18274;SDS011;19470;49.322;7.218;2023-05-02T05:08:50;21.52;;;15.40;;
18274;SDS011;19470;49.322;7.218;2023-05-02T05:11:17;20.70;;;15.43;;
18274;SDS011;19470;49.322;7.218;2023-05-02T05:13:43;22.25;;;16.83;;
18274;SDS011;19470;49.322;7.218;2023-05-02T05:16:10;19.58;;;14.63;;
18274;SDS011;19470;49.322;7.218;2023-05-02T05:18:36;24.83;;;15.93;;
18274;SDS011;19470;49.322;7.218;2023-05-02T05:21:05;21.63;;;16.73;;
18274;SDS011;19470;49.322;7.218;2023-05-02T05:23:33;26.13;;;16.00;;
18274;SDS011;19470;49.322;7.218;2023-05-02T05:26:07;19.88;;;14.25;;
18274;SDS011;19470;49.322;7.218;2023-05-02T05:28:34;18.50;;;13.82;;
18274;SDS011;19470;49.322;7.218;2023-05-02T05:31:03;17.75;;;14.23;;
18274;SDS011;19470;49.322;7.218;2023-05-02T05:33:30;22.17;;;15.10;;
18274;SDS011;19470;49.322;7.218;2023-05-02T05:36:01;20.23;;;16.70;;
18274;SDS011;19470;49.322;7.218;2023-05-02T05:38:29;24.13;;;17.45;;
18274;SDS011;19470;49.322;7.218;2023-05-02T05:40:56;39.47;;;26.15;;
18274;SDS011;19470;49.322;7.218;2023-05-02T05:43:23;24.10;;;17.90;;
18274;SDS011;19470;49.322;7.218;2023-05-02T05:45:50;24.40;;;18.40;;
18274;SDS011;19470;49.322;7.218;2023-05-02T05:48:17;21.70;;;17.52;;
18274;SDS011;19470;49.322;7.218;2023-05-02T05:50:43;21.02;;;18.17;;
18274;SDS011;19470;49.322;7.218;2023-05-02T05:53:10;22.40;;;17.55;;
18274;SDS011;19470;49.322;7.218;2023-05-02T05:55:37;24.00;;;18.17;;
18274;SDS011;19470;49.322;7.218;2023-05-02T05:58:05;26.92;;;20.58;;
18274;SDS011;19470;49.322;7.218;2023-05-02T06:00:32;24.00;;;21.48;;
18274;SDS011;19470;49.322;7.218;2023-05-02T06:02:59;27.40;;;24.45;;
18274;SDS011;19470;49.322;7.218;2023-05-02T06:05:26;29.20;;;26.05;;
18274;SDS011;19470;49.322;7.218;2023-05-02T06:07:52;29.08;;;26.08;;
18274;SDS011;19470;49.322;7.218;2023-05-02T06:10:19;35.20;;;29.52;;
18274;SDS011;19470;49.322;7.218;2023-05-02T06:12:46;38.80;;;34.60;;
18274;SDS011;19470;49.322;7.218;2023-05-02T06:15:14;41.70;;;37.13;;
18274;SDS011;19470;49.322;7.218;2023-05-02T06:17:40;50.10;;;44.83;;
18274;SDS011;19470;49.322;7.218;2023-05-02T06:20:07;45.15;;;40.42;;
18274;SDS011;19470;49.322;7.218;2023-05-02T06:22:34;48.25;;;43.35;;
18274;SDS011;19470;49.322;7.218;2023-05-02T06:25:00;48.03;;;43.10;;
18274;SDS011;19470;49.322;7.218;2023-05-02T06:27:29;59.45;;;53.38;;
18274;SDS011;19470;49.322;7.218;2023-05-02T06:29:55;53.72;;;47.75;;
18274;SDS011;19470;49.322;7.218;2023-05-02T06:32:23;53.55;;;48.22;;
18274;SDS011;19470;49.322;7.218;2023-05-02T06:34:50;57.13;;;50.97;;
18274;SDS011;19470;49.322;7.218;2023-05-02T06:37:16;54.25;;;48.85;;
18274;SDS011;19470;49.322;7.218;2023-05-02T06:39:43;60.50;;;54.50;;
18274;SDS011;19470;49.322;7.218;2023-05-02T06:42:09;66.22;;;60.05;;
18274;SDS011;19470;49.322;7.218;2023-05-02T06:44:37;53.50;;;47.10;;
18274;SDS011;19470;49.322;7.218;2023-05-02T06:47:03;53.55;;;48.00;;
18274;SDS011;19470;49.322;7.218;2023-05-02T06:49:31;64.93;;;58.67;;
18274;SDS011;19470;49.322;7.218;2023-05-02T06:51:58;70.32;;;64.13;;
18274;SDS011;19470;49.322;7.218;2023-05-02T06:54:24;74.47;;;67.90;;
18274;SDS011;19470;49.322;7.218;2023-05-02T06:56:51;96.40;;;88.93;;
18274;SDS011;19470;49.322;7.218;2023-05-02T06:59:17;76.50;;;69.82;;
18274;SDS011;19470;49.322;7.218;2023-05-02T07:01:44;73.88;;;67.40;;
18274;SDS011;19470;49.322;7.218;2023-05-02T07:04:11;84.28;;;77.53;;
18274;SDS011;19470;49.322;7.218;2023-05-02T07:06:38;121.07;;;112.68;;
18274;SDS011;19470;49.322;7.218;2023-05-02T07:09:05;116.38;;;108.13;;
18274;SDS011;19470;49.322;7.218;2023-05-02T07:11:31;144.48;;;134.80;;
18274;SDS011;19470;49.322;7.218;2023-05-02T07:13:58;162.63;;;152.27;;
18274;SDS011;19470;49.322;7.218;2023-05-02T07:16:24;154.45;;;144.50;;
18274;SDS011;19470;49.322;7.218;2023-05-02T07:18:51;130.15;;;121.35;;
18274;SDS011;19470;49.322;7.218;2023-05-02T07:21:17;132.68;;;123.50;;
18274;SDS011;19470;49.322;7.218;2023-05-02T07:23:45;155.32;;;145.20;;
18274;SDS011;19470;49.322;7.218;2023-05-02T07:26:12;148.90;;;139.25;;
18274;SDS011;19470;49.322;7.218;2023-05-02T07:28:38;159.27;;;148.75;;
18274;SDS011;19470;49.322;7.218;2023-05-02T07:31:04;153.52;;;143.65;;
18274;SDS011;19470;49.322;7.218;2023-05-02T07:33:31;123.20;;;114.95;;
18274;SDS011;19470;49.322;7.218;2023-05-02T07:35:57;105.05;;;97.32;;
18274;SDS011;19470;49.322;7.218;2023-05-02T07:38:24;95.57;;;88.18;;
18274;SDS011;19470;49.322;7.218;2023-05-02T07:40:54;123.82;;;115.25;;
18274;SDS011;19470;49.322;7.218;2023-05-02T07:43:23;113.95;;;105.78;;
18274;SDS011;19470;49.322;7.218;2023-05-02T07:45:50;123.65;;;115.03;;
18274;SDS011;19470;49.322;7.218;2023-05-02T07:48:16;142.30;;;132.30;;
18274;SDS011;19470;49.322;7.218;2023-05-02T07:50:44;157.35;;;147.57;;
18274;SDS011;19470;49.322;7.218;2023-05-02T07:53:10;145.50;;;136.05;;
18274;SDS011;19470;49.322;7.218;2023-05-02T07:55:37;157.05;;;146.93;;
18274;SDS011;19470;49.322;7.218;2023-05-02T07:58:05;147.18;;;137.75;;
18274;SDS011;19470;49.322;7.218;2023-05-02T08:00:31;104.80;;;97.38;;
18274;SDS011;19470;49.322;7.218;2023-05-02T08:02:58;103.18;;;95.82;;
18274;SDS011;19470;49.322;7.218;2023-05-02T08:05:25;99.43;;;92.25;;
18274;SDS011;19470;49.322;7.218;2023-05-02T08:07:51;109.97;;;102.28;;
18274;SDS011;19470;49.322;7.218;2023-05-02T08:10:18;127.50;;;119.15;;
18274;SDS011;19470;49.322;7.218;2023-05-02T08:12:44;127.10;;;118.47;;
18274;SDS011;19470;49.322;7.218;2023-05-02T08:15:12;112.30;;;104.75;;
18274;SDS011;19470;49.322;7.218;2023-05-02T08:17:39;110.55;;;103.07;;
18274;SDS011;19470;49.322;7.218;2023-05-02T08:20:06;117.68;;;109.57;;
18274;SDS011;19470;49.322;7.218;2023-05-02T08:22:33;130.05;;;121.68;;
18274;SDS011;19470;49.322;7.218;2023-05-02T08:24:59;125.07;;;116.90;;
18274;SDS011;19470;49.322;7.218;2023-05-02T08:27:26;138.05;;;129.00;;
18274;SDS011;19470;49.322;7.218;2023-05-02T08:29:52;143.52;;;134.43;;
18274;SDS011;19470;49.322;7.218;2023-05-02T08:32:20;148.40;;;139.32;;
18274;SDS011;19470;49.322;7.218;2023-05-02T08:34:47;146.65;;;137.88;;
18274;SDS011;19470;49.322;7.218;2023-05-02T08:37:13;149.50;;;140.05;;
18274;SDS011;19470;49.322;7.218;2023-05-02T08:39:40;172.40;;;161.95;;
18274;SDS011;19470;49.322;7.218;2023-05-02T08:42:06;181.88;;;171.35;;
18274;SDS011;19470;49.322;7.218;2023-05-02T08:44:33;198.65;;;187.43;;
18274;SDS011;19470;49.322;7.218;2023-05-02T08:47:00;209.57;;;197.88;;
18274;SDS011;19470;49.322;7.218;2023-05-02T08:49:29;210.55;;;198.38;;
18274;SDS011;19470;49.322;7.218;2023-05-02T08:51:57;211.65;;;199.75;;
18274;SDS011;19470;49.322;7.218;2023-05-02T08:54:26;210.73;;;198.98;;
18274;SDS011;19470;49.322;7.218;2023-05-02T08:56:53;208.45;;;196.57;;
18274;SDS011;19470;49.322;7.218;2023-05-02T08:59:19;215.40;;;203.48;;
18274;SDS011;19470;49.322;7.218;2023-05-02T09:01:46;217.48;;;205.35;;
18274;SDS011;19470;49.322;7.218;2023-05-02T09:04:16;220.82;;;208.68;;
18274;SDS011;19470;49.322;7.218;2023-05-02T09:06:45;196.35;;;184.10;;
18274;SDS011;19470;49.322;7.218;2023-05-02T09:09:12;222.75;;;210.35;;
18274;SDS011;19470;49.322;7.218;2023-05-02T09:11:38;209.88;;;198.00;;
18274;SDS011;19470;49.322;7.218;2023-05-02T09:14:12;203.27;;;191.55;;
18274;SDS011;19470;49.322;7.218;2023-05-02T09:16:40;208.18;;;196.52;;
18274;SDS011;19470;49.322;7.218;2023-05-02T09:19:06;207.48;;;195.60;;
18274;SDS011;19470;49.322;7.218;2023-05-02T09:21:36;226.27;;;213.88;;
18274;SDS011;19470;49.322;7.218;2023-05-02T09:24:14;212.05;;;200.38;;
18274;SDS011;19470;49.322;7.218;2023-05-02T09:26:42;225.98;;;213.60;;
18274;SDS011;19470;49.322;7.218;2023-05-02T09:29:19;215.18;;;203.32;;
18274;SDS011;19470;49.322;7.218;2023-05-02T09:31:46;188.88;;;177.73;;
18274;SDS011;19470;49.322;7.218;2023-05-02T09:34:14;199.38;;;188.02;;
18274;SDS011;19470;49.322;7.218;2023-05-02T09:36:42;162.23;;;152.90;;
18274;SDS011;19470;49.322;7.218;2023-05-02T09:39:10;169.35;;;159.48;;
18274;SDS011;19470;49.322;7.218;2023-05-02T09:41:42;174.75;;;164.68;;
18274;SDS011;19470;49.322;7.218;2023-05-02T09:44:10;163.13;;;153.55;;
18274;SDS011;19470;49.322;7.218;2023-05-02T09:46:39;192.93;;;182.02;;
18274;SDS011;19470;49.322;7.218;2023-05-02T09:49:06;209.48;;;197.88;;
18274;SDS011;19470;49.322;7.218;2023-05-02T09:51:32;208.90;;;197.35;;
18274;SDS011;19470;49.322;7.218;2023-05-02T09:53:59;209.27;;;197.63;;
18274;SDS011;19470;49.322;7.218;2023-05-02T09:56:25;213.18;;;201.73;;
18274;SDS011;19470;49.322;7.218;2023-05-02T09:58:58;212.60;;;201.00;;
18274;SDS011;19470;49.322;7.218;2023-05-02T10:01:37;225.20;;;213.00;;
18274;SDS011;19470;49.322;7.218;2023-05-02T10:04:06;222.60;;;210.50;;
18274;SDS011;19470;49.322;7.218;2023-05-02T10:06:39;223.80;;;211.63;;
18274;SDS011;19470;49.322;7.218;2023-05-02T10:09:05;222.82;;;210.98;;
18274;SDS011;19470;49.322;7.218;2023-05-02T10:11:34;245.00;;;231.68;;
18274;SDS011;19470;49.322;7.218;2023-05-02T10:14:05;229.25;;;216.80;;
18274;SDS011;19470;49.322;7.218;2023-05-02T10:16:35;220.38;;;208.57;;
18274;SDS011;19470;49.322;7.218;2023-05-02T10:19:06;209.43;;;198.02;;
18274;SDS011;19470;49.322;7.218;2023-05-02T10:21:35;215.02;;;203.35;;
18274;SDS011;19470;49.322;7.218;2023-05-02T10:24:02;224.73;;;212.70;;
18274;SDS011;19470;49.322;7.218;2023-05-02T10:26:29;176.50;;;166.55;;
18274;SDS011;19470;49.322;7.218;2023-05-02T10:28:56;162.77;;;153.63;;
18274;SDS011;19470;49.322;7.218;2023-05-02T10:31:24;149.30;;;140.85;;
18274;SDS011;19470;49.322;7.218;2023-05-02T10:33:51;170.88;;;161.10;;
18274;SDS011;19470;49.322;7.218;2023-05-02T10:36:22;152.88;;;144.50;;
18274;SDS011;19470;49.322;7.218;2023-05-02T10:38:49;160.40;;;151.55;;
18274;SDS011;19470;49.322;7.218;2023-05-02T10:41:20;157.30;;;148.15;;
18274;SDS011;19470;49.322;7.218;2023-05-02T10:43:50;154.85;;;146.23;;
18274;SDS011;19470;49.322;7.218;2023-05-02T10:46:32;156.65;;;147.93;;
18274;SDS011;19470;49.322;7.218;2023-05-02T10:49:00;158.45;;;149.70;;
18274;SDS011;19470;49.322;7.218;2023-05-02T10:51:28;164.48;;;155.15;;
18274;SDS011;19470;49.322;7.218;2023-05-02T10:57:02;274.45;;;259.80;;
18274;SDS011;19470;49.322;7.218;2023-05-02T10:59:31;365.38;;;345.92;;
18274;SDS011;19470;49.322;7.218;2023-05-02T11:02:01;388.77;;;367.48;;
18274;SDS011;19470;49.322;7.218;2023-05-02T11:07:24;323.67;;;306.85;;
18274;SDS011;19470;49.322;7.218;2023-05-02T11:09:51;314.05;;;297.83;;
18274;SDS011;19470;49.322;7.218;2023-05-02T11:15:10;289.50;;;274.55;;
18274;SDS011;19470;49.322;7.218;2023-05-02T11:20:26;233.63;;;221.50;;
18274;SDS011;19470;49.322;7.218;2023-05-02T11:22:54;245.35;;;232.73;;
18274;SDS011;19470;49.322;7.218;2023-05-02T11:25:34;209.43;;;198.68;;
18274;SDS011;19470;49.322;7.218;2023-05-02T11:28:06;318.10;;;302.00;;
18274;SDS011;19470;49.322;7.218;2023-05-02T11:30:43;332.95;;;315.95;;
18274;SDS011;19470;49.322;7.218;2023-05-02T11:33:17;307.35;;;291.77;;
18274;SDS011;19470;49.322;7.218;2023-05-02T11:35:44;245.55;;;233.27;;
18274;SDS011;19470;49.322;7.218;2023-05-02T11:38:12;156.95;;;148.65;;
18274;SDS011;19470;49.322;7.218;2023-05-02T11:40:46;185.48;;;176.00;;
18274;SDS011;19470;49.322;7.218;2023-05-02T11:43:16;145.02;;;137.63;;
18274;SDS011;19470;49.322;7.218;2023-05-02T11:45:45;118.90;;;112.82;;
18274;SDS011;19470;49.322;7.218;2023-05-02T11:48:14;76.00;;;71.97;;
18274;SDS011;19470;49.322;7.218;2023-05-02T11:50:44;98.97;;;93.88;;
18274;SDS011;19470;49.322;7.218;2023-05-02T11:53:12;121.20;;;114.93;;
18274;SDS011;19470;49.322;7.218;2023-05-02T11:55:46;121.05;;;114.90;;
18274;SDS011;19470;49.322;7.218;2023-05-02T11:58:14;150.13;;;142.32;;
18274;SDS011;19470;49.322;7.218;2023-05-02T12:00:42;154.68;;;146.73;;
18274;SDS011;19470;49.322;7.218;2023-05-02T12:03:22;186.55;;;177.07;;
18274;SDS011;19470;49.322;7.218;2023-05-02T12:05:54;155.50;;;147.63;;
18274;SDS011;19470;49.322;7.218;2023-05-02T12:08:22;125.60;;;119.40;;
18274;SDS011;19470;49.322;7.218;2023-05-02T12:10:50;119.60;;;113.60;;
18274;SDS011;19470;49.322;7.218;2023-05-02T12:13:19;108.07;;;102.57;;
18274;SDS011;19470;49.322;7.218;2023-05-02T12:15:47;110.90;;;105.30;;
18274;SDS011;19470;49.322;7.218;2023-05-02T12:18:15;102.25;;;97.05;;
18274;SDS011;19470;49.322;7.218;2023-05-02T12:20:42;122.45;;;116.25;;
18274;SDS011;19470;49.322;7.218;2023-05-02T12:23:12;143.05;;;135.88;;
18274;SDS011;19470;49.322;7.218;2023-05-02T12:25:39;153.60;;;145.82;;
18274;SDS011;19470;49.322;7.218;2023-05-02T12:28:06;163.23;;;155.02;;
18274;SDS011;19470;49.322;7.218;2023-05-02T12:30:35;149.95;;;142.43;;
18274;SDS011;19470;49.322;7.218;2023-05-02T12:33:03;161.32;;;153.23;;
18274;SDS011;19470;49.322;7.218;2023-05-02T12:35:31;178.27;;;169.32;;
18274;SDS011;19470;49.322;7.218;2023-05-02T12:38:13;185.70;;;176.35;;
18274;SDS011;19470;49.322;7.218;2023-05-02T12:40:48;199.27;;;189.43;;
18274;SDS011;19470;49.322;7.218;2023-05-02T12:43:15;210.68;;;200.23;;
18274;SDS011;19470;49.322;7.218;2023-05-02T12:45:42;221.48;;;210.52;;
18274;SDS011;19470;49.322;7.218;2023-05-02T12:50:59;256.40;;;242.88;;
18274;SDS011;19470;49.322;7.218;2023-05-02T12:53:40;223.10;;;211.88;;
18274;SDS011;19470;49.322;7.218;2023-05-02T12:56:08;213.00;;;202.50;;
18274;SDS011;19470;49.322;7.218;2023-05-02T12:58:43;209.85;;;199.30;;
18274;SDS011;19470;49.322;7.218;2023-05-02T13:01:11;176.07;;;167.25;;
18274;SDS011;19470;49.322;7.218;2023-05-02T13:03:38;142.70;;;135.50;;
18274;SDS011;19470;49.322;7.218;2023-05-02T13:06:05;157.48;;;149.52;;
18274;SDS011;19470;49.322;7.218;2023-05-02T13:08:32;172.63;;;163.75;;
18274;SDS011;19470;49.322;7.218;2023-05-02T13:11:01;159.95;;;151.70;;
18274;SDS011;19470;49.322;7.218;2023-05-02T13:13:27;174.55;;;165.68;;
18274;SDS011;19470;49.322;7.218;2023-05-02T13:15:54;178.35;;;169.40;;
18274;SDS011;19470;49.322;7.218;2023-05-02T13:18:21;174.63;;;165.82;;
18274;SDS011;19470;49.322;7.218;2023-05-02T13:20:47;159.82;;;151.60;;
18274;SDS011;19470;49.322;7.218;2023-05-02T13:23:14;175.50;;;166.70;;
18274;SDS011;19470;49.322;7.218;2023-05-02T13:25:41;170.25;;;161.68;;
18274;SDS011;19470;49.322;7.218;2023-05-02T13:28:09;175.13;;;166.25;;
18274;SDS011;19470;49.322;7.218;2023-05-02T13:30:36;204.40;;;194.20;;
18274;SDS011;19470;49.322;7.218;2023-05-02T13:33:02;224.35;;;213.20;;
18274;SDS011;19470;49.322;7.218;2023-05-02T13:35:29;252.93;;;240.40;;
18274;SDS011;19470;49.322;7.218;2023-05-02T13:37:55;270.58;;;257.25;;
18274;SDS011;19470;49.322;7.218;2023-05-02T13:40:22;272.40;;;258.70;;
18274;SDS011;19470;49.322;7.218;2023-05-02T13:42:48;236.63;;;224.98;;
18274;SDS011;19470;49.322;7.218;2023-05-02T13:45:16;245.10;;;233.20;;
18274;SDS011;19470;49.322;7.218;2023-05-02T13:47:43;221.88;;;211.00;;
18274;SDS011;19470;49.322;7.218;2023-05-02T13:50:09;188.18;;;178.98;;
18274;SDS011;19470;49.322;7.218;2023-05-02T13:52:36;121.32;;;115.45;;
18274;SDS011;19470;49.322;7.218;2023-05-02T13:55:03;122.72;;;116.78;;
18274;SDS011;19470;49.322;7.218;2023-05-02T13:57:30;86.45;;;82.07;;
18274;SDS011;19470;49.322;7.218;2023-05-02T13:59:57;128.15;;;121.85;;
18274;SDS011;19470;49.322;7.218;2023-05-02T14:02:25;139.90;;;132.98;;
18274;SDS011;19470;49.322;7.218;2023-05-02T14:04:52;157.65;;;149.68;;
18274;SDS011;19470;49.322;7.218;2023-05-02T14:07:19;189.32;;;180.15;;
18274;SDS011;19470;49.322;7.218;2023-05-02T14:09:45;204.88;;;194.85;;
18274;SDS011;19470;49.322;7.218;2023-05-02T14:12:12;173.30;;;164.68;;
18274;SDS011;19470;49.322;7.218;2023-05-02T14:14:38;193.77;;;184.18;;
18274;SDS011;19470;49.322;7.218;2023-05-02T14:17:05;189.63;;;180.32;;
18274;SDS011;19470;49.322;7.218;2023-05-02T14:19:32;186.75;;;177.63;;
18274;SDS011;19470;49.322;7.218;2023-05-02T14:21:59;195.35;;;185.85;;
18274;SDS011;19470;49.322;7.218;2023-05-02T14:24:26;178.05;;;169.27;;
18274;SDS011;19470;49.322;7.218;2023-05-02T14:26:52;210.75;;;200.18;;
18274;SDS011;19470;49.322;7.218;2023-05-02T14:29:19;183.80;;;174.70;;
18274;SDS011;19470;49.322;7.218;2023-05-02T14:31:45;199.55;;;189.73;;
18274;SDS011;19470;49.322;7.218;2023-05-02T14:34:12;208.43;;;198.05;;
18274;SDS011;19470;49.322;7.218;2023-05-02T14:36:40;203.25;;;193.02;;
18274;SDS011;19470;49.322;7.218;2023-05-02T14:39:06;217.43;;;206.70;;
18274;SDS011;19470;49.322;7.218;2023-05-02T14:41:32;221.57;;;210.55;;
18274;SDS011;19470;49.322;7.218;2023-05-02T14:43:59;219.82;;;209.10;;
18274;SDS011;19470;49.322;7.218;2023-05-02T14:46:25;216.93;;;206.40;;